sensor_id;sensor_type;location;lat;lon;timestamp;pressure;altitude;pressure_sealevel;temperature;humidity
64713;BME280;51140;45.340;5.980;2022-12-18T00:01:47;100317.97;;;1.47;100.00
64713;BME280;51140;45.340;5.980;2022-12-18T00:04:31;100312.78;;;1.45;100.00
64713;BME280;51140;45.340;5.980;2022-12-18T00:06:57;100322.25;;;1.48;100.00
64713;BME280;51140;45.340;5.980;2022-12-18T00:09:24;100329.91;;;1.45;100.00
64713;BME280;51140;45.340;5.980;2022-12-18T00:11:49;100334.03;;;1.37;100.00
64713;BME280;51140;45.340;5.980;2022-12-18T00:14:15;100333.94;;;1.32;100.00
64713;BME280;51140;45.340;5.980;2022-12-18T00:16:43;100342.47;;;1.31;100.00
64713;BME280;51140;45.340;5.980;2022-12-18T00:19:10;100348.41;;;1.29;100.00
64713;BME280;51140;45.340;5.980;2022-12-18T00:21:35;100353.59;;;1.30;100.00
64713;BME280;51140;45.340;5.980;2022-12-18T00:24:01;100356.94;;;1.26;100.00
64713;BME280;51140;45.340;5.980;2022-12-18T00:26:29;100352.66;;;1.27;100.00
64713;BME280;51140;45.340;5.980;2022-12-18T00:28:58;100353.47;;;1.24;100.00
64713;BME280;51140;45.340;5.980;2022-12-18T00:31:25;100359.41;;;1.21;100.00
64713;BME280;51140;45.340;5.980;2022-12-18T00:33:51;100355.03;;;1.19;100.00
64713;BME280;51140;45.340;5.980;2022-12-18T00:36:20;100344.66;;;1.14;100.00
64713;BME280;51140;45.340;5.980;2022-12-18T00:38:46;100339.44;;;1.10;100.00
64713;BME280;51140;45.340;5.980;2022-12-18T00:41:13;100351.28;;;1.03;100.00
64713;BME280;51140;45.340;5.980;2022-12-18T00:43:59;100340.72;;;0.89;100.00
64713;BME280;51140;45.340;5.980;2022-12-18T00:46:25;100338.91;;;0.84;100.00
64713;BME280;51140;45.340;5.980;2022-12-18T00:48:50;100338.03;;;0.83;100.00
64713;BME280;51140;45.340;5.980;2022-12-18T00:51:16;100343.09;;;0.80;100.00
64713;BME280;51140;45.340;5.980;2022-12-18T00:53:41;100337.16;;;0.83;100.00
64713;BME280;51140;45.340;5.980;2022-12-18T00:56:06;100335.50;;;0.85;100.00
64713;BME280;51140;45.340;5.980;2022-12-18T00:58:40;100331.13;;;0.81;100.00
64713;BME280;51140;45.340;5.980;2022-12-18T01:01:06;100326.69;;;0.75;100.00
64713;BME280;51140;45.340;5.980;2022-12-18T01:03:32;100327.34;;;0.65;100.00
64713;BME280;51140;45.340;5.980;2022-12-18T01:05:57;100329.75;;;0.59;100.00
64713;BME280;51140;45.340;5.980;2022-12-18T01:08:23;100333.09;;;0.55;100.00
64713;BME280;51140;45.340;5.980;2022-12-18T01:10:48;100334.75;;;0.53;100.00
64713;BME280;51140;45.340;5.980;2022-12-18T01:13:14;100342.44;;;0.53;100.00
64713;BME280;51140;45.340;5.980;2022-12-18T01:15:39;100347.72;;;0.59;100.00
64713;BME280;51140;45.340;5.980;2022-12-18T01:18:06;100343.44;;;0.59;100.00
64713;BME280;51140;45.340;5.980;2022-12-18T01:20:32;100349.53;;;0.63;100.00
64713;BME280;51140;45.340;5.980;2022-12-18T01:22:57;100356.56;;;0.72;100.00
64713;BME280;51140;45.340;5.980;2022-12-18T01:25:23;100367.72;;;0.74;100.00
64713;BME280;51140;45.340;5.980;2022-12-18T01:27:48;100370.31;;;0.75;100.00
64713;BME280;51140;45.340;5.980;2022-12-18T01:30:14;100373.75;;;0.76;100.00
64713;BME280;51140;45.340;5.980;2022-12-18T01:32:40;100370.34;;;0.77;100.00
64713;BME280;51140;45.340;5.980;2022-12-18T01:35:05;100382.31;;;0.76;100.00
64713;BME280;51140;45.340;5.980;2022-12-18T01:37:31;100385.13;;;0.85;100.00
64713;BME280;51140;45.340;5.980;2022-12-18T01:39:57;100387.75;;;0.88;100.00
64713;BME280;51140;45.340;5.980;2022-12-18T01:42:22;100386.03;;;0.89;100.00
64713;BME280;51140;45.340;5.980;2022-12-18T01:45:01;100383.50;;;0.90;100.00
64713;BME280;51140;45.340;5.980;2022-12-18T01:48:00;100380.94;;;0.90;100.00
64713;BME280;51140;45.340;5.980;2022-12-18T01:50:39;100378.31;;;0.87;100.00
64713;BME280;51140;45.340;5.980;2022-12-18T01:53:15;100380.78;;;0.83;100.00
64713;BME280;51140;45.340;5.980;2022-12-18T01:55:51;100374.84;;;0.85;100.00
64713;BME280;51140;45.340;5.980;2022-12-18T01:58:18;100377.53;;;0.90;100.00
64713;BME280;51140;45.340;5.980;2022-12-18T02:00:45;100374.97;;;0.91;100.00
64713;BME280;51140;45.340;5.980;2022-12-18T02:03:10;100380.78;;;0.83;100.00
64713;BME280;51140;45.340;5.980;2022-12-18T02:08:47;100380.22;;;0.60;100.00
64713;BME280;51140;45.340;5.980;2022-12-18T02:16:21;100364.47;;;0.10;100.00
64713;BME280;51140;45.340;5.980;2022-12-18T02:18:53;100364.78;;;-0.09;100.00
64713;BME280;51140;45.340;5.980;2022-12-18T02:27:11;100367.31;;;-0.42;100.00
64713;BME280;51140;45.340;5.980;2022-12-18T02:32:12;100363.41;;;-0.59;100.00
64713;BME280;51140;45.340;5.980;2022-12-18T02:34:39;100369.22;;;-0.65;100.00
64713;BME280;51140;45.340;5.980;2022-12-18T02:37:09;100374.56;;;-0.57;100.00
64713;BME280;51140;45.340;5.980;2022-12-18T02:39:37;100369.31;;;-0.62;100.00
64713;BME280;51140;45.340;5.980;2022-12-18T02:42:03;100368.53;;;-0.59;100.00
64713;BME280;51140;45.340;5.980;2022-12-18T02:44:34;100365.75;;;-0.67;100.00
64713;BME280;51140;45.340;5.980;2022-12-18T02:47:00;100372.84;;;-0.58;100.00
64713;BME280;51140;45.340;5.980;2022-12-18T02:50:26;100360.56;;;-0.70;100.00
64713;BME280;51140;45.340;5.980;2022-12-18T02:55:28;100369.47;;;-0.86;100.00
64713;BME280;51140;45.340;5.980;2022-12-18T03:00:24;100368.31;;;-0.96;100.00
64713;BME280;51140;45.340;5.980;2022-12-18T03:05:22;100382.72;;;-0.99;100.00
64713;BME280;51140;45.340;5.980;2022-12-18T03:07:55;100384.38;;;-1.01;100.00
64713;BME280;51140;45.340;5.980;2022-12-18T03:10:26;100381.63;;;-1.07;100.00
64713;BME280;51140;45.340;5.980;2022-12-18T03:13:00;100389.97;;;-1.13;100.00
64713;BME280;51140;45.340;5.980;2022-12-18T03:15:34;100394.19;;;-1.15;100.00
64713;BME280;51140;45.340;5.980;2022-12-18T03:18:07;100396.69;;;-1.16;100.00
64713;BME280;51140;45.340;5.980;2022-12-18T03:20:35;100404.47;;;-1.13;100.00
64713;BME280;51140;45.340;5.980;2022-12-18T03:23:09;100412.00;;;-1.18;100.00
64713;BME280;51140;45.340;5.980;2022-12-18T03:25:40;100419.31;;;-1.29;100.00
64713;BME280;51140;45.340;5.980;2022-12-18T03:28:10;100432.75;;;-1.34;100.00
64713;BME280;51140;45.340;5.980;2022-12-18T03:30:38;100432.47;;;-1.43;100.00
64713;BME280;51140;45.340;5.980;2022-12-18T03:33:12;100440.09;;;-1.45;100.00
64713;BME280;51140;45.340;5.980;2022-12-18T03:35:41;100440.03;;;-1.46;100.00
64713;BME280;51140;45.340;5.980;2022-12-18T03:38:08;100450.88;;;-1.53;100.00
64713;BME280;51140;45.340;5.980;2022-12-18T03:40:45;100456.66;;;-1.59;100.00
64713;BME280;51140;45.340;5.980;2022-12-18T03:43:29;100457.13;;;-1.69;100.00
64713;BME280;51140;45.340;5.980;2022-12-18T03:49:07;100459.78;;;-1.66;100.00
64713;BME280;51140;45.340;5.980;2022-12-18T03:51:40;100457.34;;;-1.63;100.00
64713;BME280;51140;45.340;5.980;2022-12-18T03:54:09;100473.44;;;-1.66;100.00
64713;BME280;51140;45.340;5.980;2022-12-18T03:56:41;100469.19;;;-1.65;100.00
64713;BME280;51140;45.340;5.980;2022-12-18T03:59:10;100483.16;;;-1.81;100.00
64713;BME280;51140;45.340;5.980;2022-12-18T04:01:40;100479.47;;;-1.89;100.00
64713;BME280;51140;45.340;5.980;2022-12-18T04:04:09;100480.44;;;-1.85;100.00
64713;BME280;51140;45.340;5.980;2022-12-18T04:06:37;100490.81;;;-1.81;100.00
64713;BME280;51140;45.340;5.980;2022-12-18T04:09:04;100487.00;;;-1.92;100.00
64713;BME280;51140;45.340;5.980;2022-12-18T04:11:30;100501.16;;;-2.00;100.00
64713;BME280;51140;45.340;5.980;2022-12-18T04:13:56;100503.81;;;-1.99;100.00
64713;BME280;51140;45.340;5.980;2022-12-18T04:16:23;100500.28;;;-2.01;100.00
64713;BME280;51140;45.340;5.980;2022-12-18T04:18:48;100505.41;;;-2.01;100.00
64713;BME280;51140;45.340;5.980;2022-12-18T04:21:14;100514.25;;;-1.93;100.00
64713;BME280;51140;45.340;5.980;2022-12-18T04:23:39;100506.56;;;-1.93;100.00
64713;BME280;51140;45.340;5.980;2022-12-18T04:26:05;100516.03;;;-1.90;100.00
64713;BME280;51140;45.340;5.980;2022-12-18T04:28:30;100504.13;;;-1.90;100.00
64713;BME280;51140;45.340;5.980;2022-12-18T04:30:55;100511.09;;;-1.85;100.00
64713;BME280;51140;45.340;5.980;2022-12-18T04:33:21;100515.06;;;-1.94;100.00
64713;BME280;51140;45.340;5.980;2022-12-18T04:35:46;100511.38;;;-2.00;100.00
64713;BME280;51140;45.340;5.980;2022-12-18T04:38:12;100528.00;;;-1.89;100.00
64713;BME280;51140;45.340;5.980;2022-12-18T04:40:38;100518.66;;;-1.88;100.00
64713;BME280;51140;45.340;5.980;2022-12-18T04:43:04;100526.19;;;-1.92;100.00
64713;BME280;51140;45.340;5.980;2022-12-18T04:45:31;100528.91;;;-1.87;100.00
64713;BME280;51140;45.340;5.980;2022-12-18T04:48:00;100529.84;;;-1.85;100.00
64713;BME280;51140;45.340;5.980;2022-12-18T04:50:26;100524.47;;;-1.93;100.00
64713;BME280;51140;45.340;5.980;2022-12-18T04:52:52;100525.97;;;-1.98;100.00
64713;BME280;51140;45.340;5.980;2022-12-18T04:55:18;100525.94;;;-1.99;100.00
64713;BME280;51140;45.340;5.980;2022-12-18T04:57:43;100522.41;;;-2.01;100.00
64713;BME280;51140;45.340;5.980;2022-12-18T05:00:09;100531.38;;;-2.12;100.00
64713;BME280;51140;45.340;5.980;2022-12-18T05:02:35;100525.00;;;-2.24;100.00
64713;BME280;51140;45.340;5.980;2022-12-18T05:05:00;100530.97;;;-2.23;100.00
64713;BME280;51140;45.340;5.980;2022-12-18T05:07:26;100532.31;;;-2.10;100.00
64713;BME280;51140;45.340;5.980;2022-12-18T05:09:51;100518.78;;;-2.08;100.00
64713;BME280;51140;45.340;5.980;2022-12-18T05:12:16;100523.59;;;-2.15;100.00
64713;BME280;51140;45.340;5.980;2022-12-18T05:14:42;100520.66;;;-2.26;100.00
64713;BME280;51140;45.340;5.980;2022-12-18T05:17:07;100511.09;;;-2.32;100.00
64713;BME280;51140;45.340;5.980;2022-12-18T05:19:33;100512.66;;;-2.35;100.00
64713;BME280;51140;45.340;5.980;2022-12-18T05:21:58;100507.63;;;-2.34;100.00
64713;BME280;51140;45.340;5.980;2022-12-18T05:24:24;100511.59;;;-2.40;100.00
64713;BME280;51140;45.340;5.980;2022-12-18T05:26:49;100512.59;;;-2.37;100.00
64713;BME280;51140;45.340;5.980;2022-12-18T05:29:15;100506.03;;;-2.30;100.00
64713;BME280;51140;45.340;5.980;2022-12-18T05:31:40;100506.03;;;-2.30;100.00
64713;BME280;51140;45.340;5.980;2022-12-18T05:34:06;100512.66;;;-2.35;100.00
64713;BME280;51140;45.340;5.980;2022-12-18T05:36:31;100501.97;;;-2.25;100.00
64713;BME280;51140;45.340;5.980;2022-12-18T05:38:57;100499.03;;;-2.36;100.00
64713;BME280;51140;45.340;5.980;2022-12-18T05:41:22;100504.56;;;-2.46;100.00
64713;BME280;51140;45.340;5.980;2022-12-18T05:43:48;100499.59;;;-2.43;100.00
64713;BME280;51140;45.340;5.980;2022-12-18T05:46:15;100499.41;;;-2.25;100.00
64713;BME280;51140;45.340;5.980;2022-12-18T05:48:43;100501.81;;;-2.06;100.00
64713;BME280;51140;45.340;5.980;2022-12-18T05:51:15;100500.44;;;-1.98;100.00
64713;BME280;51140;45.340;5.980;2022-12-18T05:53:41;100497.19;;;-2.16;100.00
64713;BME280;51140;45.340;5.980;2022-12-18T05:56:10;100495.84;;;-2.30;100.00
64713;BME280;51140;45.340;5.980;2022-12-18T05:58:36;100506.84;;;-2.31;100.00
64713;BME280;51140;45.340;5.980;2022-12-18T06:01:11;100508.25;;;-2.39;100.00
64713;BME280;51140;45.340;5.980;2022-12-18T06:03:36;100511.25;;;-2.27;100.00
64713;BME280;51140;45.340;5.980;2022-12-18T06:06:02;100513.00;;;-2.26;100.00
64713;BME280;51140;45.340;5.980;2022-12-18T06:08:28;100517.19;;;-2.28;100.00
64713;BME280;51140;45.340;5.980;2022-12-18T06:10:53;100519.78;;;-2.27;100.00
64713;BME280;51140;45.340;5.980;2022-12-18T06:13:20;100521.94;;;-2.37;100.00
64713;BME280;51140;45.340;5.980;2022-12-18T06:15:45;100519.41;;;-2.37;100.00
64713;BME280;51140;45.340;5.980;2022-12-18T06:18:11;100522.13;;;-2.33;100.00
64713;BME280;51140;45.340;5.980;2022-12-18T06:20:36;100511.31;;;-2.26;100.00
64713;BME280;51140;45.340;5.980;2022-12-18T06:23:05;100518.69;;;-2.33;100.00
64713;BME280;51140;45.340;5.980;2022-12-18T06:25:30;100515.28;;;-2.34;100.00
64713;BME280;51140;45.340;5.980;2022-12-18T06:27:56;100513.69;;;-2.53;100.00
64713;BME280;51140;45.340;5.980;2022-12-18T06:30:22;100508.22;;;-2.62;100.00
64713;BME280;51140;45.340;5.980;2022-12-18T06:32:50;100511.84;;;-2.57;100.00
64713;BME280;51140;45.340;5.980;2022-12-18T06:35:16;100520.69;;;-2.47;100.00
64713;BME280;51140;45.340;5.980;2022-12-18T06:37:41;100517.50;;;-2.41;100.00
64713;BME280;51140;45.340;5.980;2022-12-18T06:40:07;100508.25;;;-2.39;100.00
64713;BME280;51140;45.340;5.980;2022-12-18T06:42:33;100514.50;;;-2.31;100.00
64713;BME280;51140;45.340;5.980;2022-12-18T06:44:58;100518.59;;;-2.36;100.00
64713;BME280;51140;45.340;5.980;2022-12-18T06:47:24;100516.59;;;-2.43;100.00
64713;BME280;51140;45.340;5.980;2022-12-18T06:49:49;100519.41;;;-2.37;100.00
64713;BME280;51140;45.340;5.980;2022-12-18T06:52:14;100530.97;;;-2.45;100.00
64713;BME280;51140;45.340;5.980;2022-12-18T06:54:40;100531.38;;;-2.57;100.00
64713;BME280;51140;45.340;5.980;2022-12-18T06:57:05;100531.38;;;-2.57;100.00
64713;BME280;51140;45.340;5.980;2022-12-18T06:59:31;100533.41;;;-2.48;100.00
64713;BME280;51140;45.340;5.980;2022-12-18T07:01:56;100545.69;;;-2.61;100.00
64713;BME280;51140;45.340;5.980;2022-12-18T07:04:21;100547.19;;;-2.66;100.00
64713;BME280;51140;45.340;5.980;2022-12-18T07:06:47;100550.56;;;-2.67;100.00
64713;BME280;51140;45.340;5.980;2022-12-18T07:09:12;100554.72;;;-2.69;100.00
64713;BME280;51140;45.340;5.980;2022-12-18T07:11:37;100557.91;;;-2.74;100.00
64713;BME280;51140;45.340;5.980;2022-12-18T07:14:03;100554.44;;;-2.76;100.00
64713;BME280;51140;45.340;5.980;2022-12-18T07:16:28;100560.00;;;-2.85;100.00
64713;BME280;51140;45.340;5.980;2022-12-18T07:18:55;100558.28;;;-2.86;100.00
64713;BME280;51140;45.340;5.980;2022-12-18T07:21:22;100558.66;;;-2.77;100.00
64713;BME280;51140;45.340;5.980;2022-12-18T07:23:47;100560.66;;;-2.70;100.00
64713;BME280;51140;45.340;5.980;2022-12-18T07:26:14;100562.28;;;-2.72;100.00
64713;BME280;51140;45.340;5.980;2022-12-18T07:28:41;100560.53;;;-2.73;100.00
64713;BME280;51140;45.340;5.980;2022-12-18T07:31:09;100570.63;;;-2.76;100.00
64713;BME280;51140;45.340;5.980;2022-12-18T07:33:35;100567.13;;;-2.78;100.00
64713;BME280;51140;45.340;5.980;2022-12-18T07:36:05;100563.88;;;-2.74;100.00
64713;BME280;51140;45.340;5.980;2022-12-18T07:38:32;100562.03;;;-2.78;100.00
64713;BME280;51140;45.340;5.980;2022-12-18T07:41:02;100557.97;;;-2.73;100.00
64713;BME280;51140;45.340;5.980;2022-12-18T07:43:28;100562.16;;;-2.75;100.00
64713;BME280;51140;45.340;5.980;2022-12-18T07:45:53;100557.81;;;-2.77;100.00
64713;BME280;51140;45.340;5.980;2022-12-18T07:48:19;100561.41;;;-2.72;100.00
64713;BME280;51140;45.340;5.980;2022-12-18T07:50:44;100560.78;;;-2.67;100.00
64713;BME280;51140;45.340;5.980;2022-12-18T07:53:09;100567.03;;;-2.59;100.00
64713;BME280;51140;45.340;5.980;2022-12-18T07:55:35;100565.78;;;-2.47;100.00
64713;BME280;51140;45.340;5.980;2022-12-18T07:58:02;100571.91;;;-2.42;100.00
64713;BME280;51140;45.340;5.980;2022-12-18T08:00:27;100574.25;;;-2.48;100.00
64713;BME280;51140;45.340;5.980;2022-12-18T08:02:53;100573.19;;;-2.54;100.00
64713;BME280;51140;45.340;5.980;2022-12-18T08:05:18;100578.28;;;-2.54;100.00
64713;BME280;51140;45.340;5.980;2022-12-18T08:07:44;100582.13;;;-2.42;100.00
64713;BME280;51140;45.340;5.980;2022-12-18T08:10:09;100582.00;;;-2.45;100.00
64713;BME280;51140;45.340;5.980;2022-12-18T08:12:34;100581.94;;;-2.47;100.00
64713;BME280;51140;45.340;5.980;2022-12-18T08:15:00;100590.59;;;-2.43;100.00
64713;BME280;51140;45.340;5.980;2022-12-18T08:17:25;100592.97;;;-2.48;100.00
64713;BME280;51140;45.340;5.980;2022-12-18T08:19:51;100586.53;;;-2.61;100.00
64713;BME280;51140;45.340;5.980;2022-12-18T08:22:16;100595.75;;;-2.64;100.00
64713;BME280;51140;45.340;5.980;2022-12-18T08:24:41;100585.59;;;-2.63;100.00
64713;BME280;51140;45.340;5.980;2022-12-18T08:27:07;100592.38;;;-2.63;100.00
64713;BME280;51140;45.340;5.980;2022-12-18T08:29:32;100594.94;;;-2.63;100.00
64713;BME280;51140;45.340;5.980;2022-12-18T08:31:58;100604.31;;;-2.62;100.00
64713;BME280;51140;45.340;5.980;2022-12-18T08:34:25;100606.81;;;-2.64;100.00
64713;BME280;51140;45.340;5.980;2022-12-18T08:36:50;100602.34;;;-2.69;100.00
64713;BME280;51140;45.340;5.980;2022-12-18T08:39:16;100599.66;;;-2.72;100.00
64713;BME280;51140;45.340;5.980;2022-12-18T08:41:41;100599.78;;;-2.69;100.00
64713;BME280;51140;45.340;5.980;2022-12-18T08:44:07;100603.22;;;-2.69;100.00
64713;BME280;51140;45.340;5.980;2022-12-18T08:46:51;100607.38;;;-2.71;100.00
64713;BME280;51140;45.340;5.980;2022-12-18T08:49:17;100603.16;;;-2.70;100.00
64713;BME280;51140;45.340;5.980;2022-12-18T08:51:42;100605.63;;;-2.72;100.00
64713;BME280;51140;45.340;5.980;2022-12-18T08:54:11;100610.69;;;-2.73;100.00
64713;BME280;51140;45.340;5.980;2022-12-18T08:56:37;100608.06;;;-2.75;100.00
64713;BME280;51140;45.340;5.980;2022-12-18T08:59:02;100606.44;;;-2.73;100.00
64713;BME280;51140;45.340;5.980;2022-12-18T09:01:29;100607.19;;;-2.75;100.00
64713;BME280;51140;45.340;5.980;2022-12-18T09:03:54;100601.09;;;-2.79;100.00
64713;BME280;51140;45.340;5.980;2022-12-18T09:06:21;100599.03;;;-2.67;100.00
64713;BME280;51140;45.340;5.980;2022-12-18T09:08:46;100603.50;;;-2.61;100.00
64713;BME280;51140;45.340;5.980;2022-12-18T09:11:20;100599.41;;;-2.58;100.00
64713;BME280;51140;45.340;5.980;2022-12-18T09:13:46;100601.47;;;-2.70;100.00
64713;BME280;51140;45.340;5.980;2022-12-18T09:16:11;100603.34;;;-2.66;100.00
64713;BME280;51140;45.340;5.980;2022-12-18T09:18:37;100603.22;;;-2.69;100.00
64713;BME280;51140;45.340;5.980;2022-12-18T09:21:14;100602.34;;;-2.69;100.00
64713;BME280;51140;45.340;5.980;2022-12-18T09:23:39;100601.34;;;-2.73;100.00
64713;BME280;51140;45.340;5.980;2022-12-18T09:26:05;100602.16;;;-2.74;100.00
64713;BME280;51140;45.340;5.980;2022-12-18T09:28:31;100599.59;;;-2.74;100.00
64713;BME280;51140;45.340;5.980;2022-12-18T09:30:56;100603.16;;;-2.70;100.00
64713;BME280;51140;45.340;5.980;2022-12-18T09:33:22;100604.25;;;-2.64;100.00
64713;BME280;51140;45.340;5.980;2022-12-18T09:35:47;100603.44;;;-2.63;100.00
64713;BME280;51140;45.340;5.980;2022-12-18T09:38:15;100610.41;;;-2.38;100.00
64713;BME280;51140;45.340;5.980;2022-12-18T09:40:43;100606.59;;;-2.27;100.00
64713;BME280;51140;45.340;5.980;2022-12-18T09:43:18;100611.59;;;-2.30;100.00
64713;BME280;51140;45.340;5.980;2022-12-18T09:45:47;100608.50;;;-2.21;100.00
64713;BME280;51140;45.340;5.980;2022-12-18T09:48:34;100613.97;;;-2.12;100.00
64713;BME280;51140;45.340;5.980;2022-12-18T09:51:13;100620.81;;;-2.11;100.00
64713;BME280;51140;45.340;5.980;2022-12-18T09:53:41;100622.66;;;-2.07;100.00
64713;BME280;51140;45.340;5.980;2022-12-18T09:56:16;100622.31;;;-2.16;100.00
64713;BME280;51140;45.340;5.980;2022-12-18T09:59:14;100623.25;;;-2.14;100.00
64713;BME280;51140;45.340;5.980;2022-12-18T10:01:33;100624.28;;;-2.09;100.00
64713;BME280;51140;45.340;5.980;2022-12-18T10:03:59;100630.38;;;-2.05;100.00
64713;BME280;51140;45.340;5.980;2022-12-18T10:09:04;100641.91;;;-1.94;100.00
64713;BME280;51140;45.340;5.980;2022-12-18T10:12:12;100648.22;;;-1.84;100.00
64713;BME280;51140;45.340;5.980;2022-12-18T10:20:08;100659.50;;;-1.57;100.00
64713;BME280;51140;45.340;5.980;2022-12-18T10:22:39;100666.91;;;-1.41;100.00
64713;BME280;51140;45.340;5.980;2022-12-18T10:27:44;100668.72;;;-1.14;100.00
64713;BME280;51140;45.340;5.980;2022-12-18T10:30:15;100674.03;;;-1.08;100.00
64713;BME280;51140;45.340;5.980;2022-12-18T10:32:41;100673.84;;;-0.89;100.00
64713;BME280;51140;45.340;5.980;2022-12-18T10:35:24;100682.81;;;-0.51;100.00
64713;BME280;51140;45.340;5.980;2022-12-18T10:43:14;100675.75;;;0.21;100.00
64713;BME280;51140;45.340;5.980;2022-12-18T10:45:41;100667.72;;;0.39;100.00
64713;BME280;51140;45.340;5.980;2022-12-18T10:48:21;100662.31;;;0.58;100.00
64713;BME280;51140;45.340;5.980;2022-12-18T10:50:50;100670.22;;;0.66;100.00
64713;BME280;51140;45.340;5.980;2022-12-18T10:53:31;100664.47;;;0.75;100.00
64713;BME280;51140;45.340;5.980;2022-12-18T10:56:02;100654.03;;;0.69;100.00
64713;BME280;51140;45.340;5.980;2022-12-18T10:58:33;100648.03;;;0.68;100.00
64713;BME280;51140;45.340;5.980;2022-12-18T11:03:44;100654.72;;;0.93;100.00
64713;BME280;51140;45.340;5.980;2022-12-18T11:06:18;100662.50;;;1.28;100.00
64713;BME280;51140;45.340;5.980;2022-12-18T11:08:59;100664.38;;;1.68;100.00
64713;BME280;51140;45.340;5.980;2022-12-18T11:11:25;100674.22;;;1.85;100.00
64713;BME280;51140;45.340;5.980;2022-12-18T11:14:15;100660.69;;;1.94;100.00
64713;BME280;51140;45.340;5.980;2022-12-18T11:16:44;100665.34;;;2.09;100.00
64713;BME280;51140;45.340;5.980;2022-12-18T11:19:38;100658.22;;;2.36;100.00
64713;BME280;51140;45.340;5.980;2022-12-18T11:27:27;100662.50;;;2.78;100.00
64713;BME280;51140;45.340;5.980;2022-12-18T11:30:08;100654.66;;;2.72;100.00
64713;BME280;51140;45.340;5.980;2022-12-18T11:38:23;100639.13;;;3.11;100.00
64713;BME280;51140;45.340;5.980;2022-12-18T11:40:55;100628.78;;;3.09;100.00
64713;BME280;51140;45.340;5.980;2022-12-18T11:46:19;100596.97;;;3.06;100.00
64713;BME280;51140;45.340;5.980;2022-12-18T11:49:08;100589.25;;;3.07;100.00
64713;BME280;51140;45.340;5.980;2022-12-18T11:51:43;100573.53;;;2.91;100.00
64713;BME280;51140;45.340;5.980;2022-12-18T11:54:14;100578.53;;;2.81;100.00
64713;BME280;51140;45.340;5.980;2022-12-18T11:56:47;100572.28;;;2.70;100.00
64713;BME280;51140;45.340;5.980;2022-12-18T12:00:09;100573.84;;;2.62;100.00
64713;BME280;51140;45.340;5.980;2022-12-18T12:02:21;100565.19;;;3.05;100.00
64713;BME280;51140;45.340;5.980;2022-12-18T12:08:14;100539.75;;;3.24;100.00
64713;BME280;51140;45.340;5.980;2022-12-18T12:16:17;100516.63;;;2.77;100.00
64713;BME280;51140;45.340;5.980;2022-12-18T12:26:41;100493.25;;;2.63;100.00
64713;BME280;51140;45.340;5.980;2022-12-18T12:35:21;100476.41;;;2.80;100.00
64713;BME280;51140;45.340;5.980;2022-12-18T12:40:26;100464.81;;;3.08;100.00
64713;BME280;51140;45.340;5.980;2022-12-18T12:42:58;100450.25;;;3.10;100.00
64713;BME280;51140;45.340;5.980;2022-12-18T12:48:19;100433.16;;;3.15;100.00
64713;BME280;51140;45.340;5.980;2022-12-18T12:50:47;100425.38;;;3.11;100.00
64713;BME280;51140;45.340;5.980;2022-12-18T12:53:34;100424.41;;;3.04;100.00
64713;BME280;51140;45.340;5.980;2022-12-18T12:56:01;100415.81;;;3.02;100.00
64713;BME280;51140;45.340;5.980;2022-12-18T12:58:42;100403.94;;;3.12;100.00
64713;BME280;51140;45.340;5.980;2022-12-18T13:07:05;100392.25;;;3.37;100.00
64713;BME280;51140;45.340;5.980;2022-12-18T13:09:33;100377.66;;;3.37;100.00
64713;BME280;51140;45.340;5.980;2022-12-18T13:12:04;100361.31;;;3.35;100.00
64713;BME280;51140;45.340;5.980;2022-12-18T13:15:12;100350.25;;;3.42;100.00
64713;BME280;51140;45.340;5.980;2022-12-18T13:17:38;100362.25;;;3.42;100.00
64713;BME280;51140;45.340;5.980;2022-12-18T13:20:13;100359.72;;;3.45;100.00
64713;BME280;51140;45.340;5.980;2022-12-18T13:22:47;100348.59;;;3.49;100.00
64713;BME280;51140;45.340;5.980;2022-12-18T13:25:31;100333.16;;;3.51;100.00
64713;BME280;51140;45.340;5.980;2022-12-18T13:28:00;100338.41;;;3.58;100.00
64713;BME280;51140;45.340;5.980;2022-12-18T13:40:59;100318.94;;;3.85;100.00
64713;BME280;51140;45.340;5.980;2022-12-18T13:48:27;100312.94;;;3.87;100.00
64713;BME280;51140;45.340;5.980;2022-12-18T13:51:01;100317.25;;;3.90;100.00
64713;BME280;51140;45.340;5.980;2022-12-18T13:53:39;100307.81;;;3.90;100.00
64713;BME280;51140;45.340;5.980;2022-12-18T13:56:07;100317.22;;;3.87;100.00
64713;BME280;51140;45.340;5.980;2022-12-18T13:58:33;100306.03;;;3.83;100.00
64713;BME280;51140;45.340;5.980;2022-12-18T14:00:58;100299.19;;;3.87;100.00
64713;BME280;51140;45.340;5.980;2022-12-18T14:03:27;100293.19;;;3.88;100.00
64713;BME280;51140;45.340;5.980;2022-12-18T14:05:55;100284.59;;;3.89;100.00
64713;BME280;51140;45.340;5.980;2022-12-18T14:08:23;100280.28;;;3.88;100.00
64713;BME280;51140;45.340;5.980;2022-12-18T14:10:49;100281.97;;;3.84;100.00
64713;BME280;51140;45.340;5.980;2022-12-18T14:13:37;100278.44;;;3.73;100.00
64713;BME280;51140;45.340;5.980;2022-12-18T14:16:06;100293.06;;;3.75;100.00
64713;BME280;51140;45.340;5.980;2022-12-18T14:18:38;100281.03;;;3.74;100.00
64713;BME280;51140;45.340;5.980;2022-12-18T14:23:45;100280.25;;;3.83;100.00
64713;BME280;51140;45.340;5.980;2022-12-18T14:26:30;100301.84;;;3.97;100.00
64713;BME280;51140;45.340;5.980;2022-12-18T14:29:00;100309.69;;;4.05;100.00
64713;BME280;51140;45.340;5.980;2022-12-18T14:31:30;100320.00;;;4.03;100.00
64713;BME280;51140;45.340;5.980;2022-12-18T14:33:57;100325.94;;;3.98;100.00
64713;BME280;51140;45.340;5.980;2022-12-18T14:36:29;100334.38;;;3.83;100.00
64713;BME280;51140;45.340;5.980;2022-12-18T14:38:58;100343.00;;;3.84;100.00
64713;BME280;51140;45.340;5.980;2022-12-18T14:41:25;100350.69;;;3.81;100.00
64713;BME280;51140;45.340;5.980;2022-12-18T14:43:53;100353.25;;;3.77;100.00
64713;BME280;51140;45.340;5.980;2022-12-18T14:46:36;100349.78;;;3.75;100.00